sensor_id;sensor_type;location;lat;lon;timestamp;P1;durP1;ratioP1;P2;durP2;ratioP2
44480;SDS011;30184;42.018;23.670;2022-10-03T04:02:30;9.20;;;5.97;;
44480;SDS011;30184;42.018;23.670;2022-10-03T04:05:14;14.33;;;5.47;;
44480;SDS011;30184;42.018;23.670;2022-10-03T04:07:59;7.18;;;4.95;;
44480;SDS011;30184;42.018;23.670;2022-10-03T04:10:51;11.43;;;5.18;;
44480;SDS011;30184;42.018;23.670;2022-10-03T04:16:40;14.35;;;6.05;;
44480;SDS011;30184;42.018;23.670;2022-10-03T04:19:42;8.45;;;4.20;;
44480;SDS011;30184;42.018;23.670;2022-10-03T04:22:35;17.83;;;5.47;;
44480;SDS011;30184;42.018;23.670;2022-10-03T04:25:18;12.77;;;7.30;;
44480;SDS011;30184;42.018;23.670;2022-10-03T04:28:07;16.98;;;9.02;;
44480;SDS011;30184;42.018;23.670;2022-10-03T04:30:59;16.45;;;7.57;;
44480;SDS011;30184;42.018;23.670;2022-10-03T04:33:39;18.00;;;7.32;;
44480;SDS011;30184;42.018;23.670;2022-10-03T04:39:25;14.10;;;7.47;;
44480;SDS011;30184;42.018;23.670;2022-10-03T04:42:06;10.73;;;7.00;;
44480;SDS011;30184;42.018;23.670;2022-10-03T04:44:52;12.50;;;6.35;;
44480;SDS011;30184;42.018;23.670;2022-10-03T04:47:32;10.93;;;5.35;;
44480;SDS011;30184;42.018;23.670;2022-10-03T04:50:12;11.40;;;5.25;;
44480;SDS011;30184;42.018;23.670;2022-10-03T04:52:58;15.65;;;7.70;;
44480;SDS011;30184;42.018;23.670;2022-10-03T04:55:46;19.85;;;9.25;;
44480;SDS011;30184;42.018;23.670;2022-10-03T04:58:23;15.02;;;6.35;;
44480;SDS011;30184;42.018;23.670;2022-10-03T05:01:05;9.77;;;4.20;;
44480;SDS011;30184;42.018;23.670;2022-10-03T05:03:44;14.15;;;5.30;;
44480;SDS011;30184;42.018;23.670;2022-10-03T05:06:26;21.45;;;9.98;;
44480;SDS011;30184;42.018;23.670;2022-10-03T05:09:11;25.15;;;13.52;;
44480;SDS011;30184;42.018;23.670;2022-10-03T05:11:56;24.70;;;11.85;;
44480;SDS011;30184;42.018;23.670;2022-10-03T05:14:33;37.78;;;19.95;;
44480;SDS011;30184;42.018;23.670;2022-10-03T05:17:17;19.58;;;10.43;;
44480;SDS011;30184;42.018;23.670;2022-10-03T05:19:56;11.45;;;4.95;;
44480;SDS011;30184;42.018;23.670;2022-10-03T05:22:43;18.40;;;10.52;;
44480;SDS011;30184;42.018;23.670;2022-10-03T05:25:21;21.25;;;10.88;;
44480;SDS011;30184;42.018;23.670;2022-10-03T05:28:02;27.52;;;11.48;;
44480;SDS011;30184;42.018;23.670;2022-10-03T05:30:41;21.48;;;11.68;;
44480;SDS011;30184;42.018;23.670;2022-10-03T05:33:18;19.20;;;12.13;;
44480;SDS011;30184;42.018;23.670;2022-10-03T05:36:02;28.02;;;14.88;;
44480;SDS011;30184;42.018;23.670;2022-10-03T05:41:44;24.73;;;16.23;;
44480;SDS011;30184;42.018;23.670;2022-10-03T05:44:36;41.38;;;21.80;;
44480;SDS011;30184;42.018;23.670;2022-10-03T05:47:10;54.33;;;33.60;;
44480;SDS011;30184;42.018;23.670;2022-10-03T05:53:07;15.82;;;8.30;;
44480;SDS011;30184;42.018;23.670;2022-10-03T05:55:58;30.88;;;17.25;;
44480;SDS011;30184;42.018;23.670;2022-10-03T05:58:43;29.20;;;17.65;;
44480;SDS011;30184;42.018;23.670;2022-10-03T06:01:48;60.80;;;33.97;;
44480;SDS011;30184;42.018;23.670;2022-10-03T06:04:38;26.42;;;15.43;;
44480;SDS011;30184;42.018;23.670;2022-10-03T06:07:21;196.77;;;111.10;;
44480;SDS011;30184;42.018;23.670;2022-10-03T06:09:59;41.13;;;19.67;;
44480;SDS011;30184;42.018;23.670;2022-10-03T06:12:47;43.92;;;25.63;;
44480;SDS011;30184;42.018;23.670;2022-10-03T06:15:41;49.25;;;25.95;;
44480;SDS011;30184;42.018;23.670;2022-10-03T06:18:25;39.83;;;23.33;;
44480;SDS011;30184;42.018;23.670;2022-10-03T06:24:33;54.05;;;29.27;;
44480;SDS011;30184;42.018;23.670;2022-10-03T06:30:37;49.85;;;16.50;;
44480;SDS011;30184;42.018;23.670;2022-10-03T06:37:11;32.67;;;16.92;;
44480;SDS011;30184;42.018;23.670;2022-10-03T06:40:03;29.90;;;15.93;;
44480;SDS011;30184;42.018;23.670;2022-10-03T06:43:00;41.10;;;15.57;;
44480;SDS011;30184;42.018;23.670;2022-10-03T06:52:16;39.72;;;19.17;;
44480;SDS011;30184;42.018;23.670;2022-10-03T06:55:20;32.95;;;18.35;;
44480;SDS011;30184;42.018;23.670;2022-10-03T07:04:49;36.95;;;17.80;;
44480;SDS011;30184;42.018;23.670;2022-10-03T07:10:42;45.15;;;21.52;;
44480;SDS011;30184;42.018;23.670;2022-10-03T07:16:29;29.92;;;13.70;;
44480;SDS011;30184;42.018;23.670;2022-10-03T07:19:29;34.97;;;15.75;;
44480;SDS011;30184;42.018;23.670;2022-10-03T07:26:09;38.65;;;17.15;;
44480;SDS011;30184;42.018;23.670;2022-10-03T07:28:59;27.00;;;13.63;;
44480;SDS011;30184;42.018;23.670;2022-10-03T07:31:46;30.90;;;16.40;;
44480;SDS011;30184;42.018;23.670;2022-10-03T07:34:40;55.40;;;25.40;;
44480;SDS011;30184;42.018;23.670;2022-10-03T07:37:40;17.67;;;9.63;;
44480;SDS011;30184;42.018;23.670;2022-10-03T07:44:05;52.55;;;28.52;;
44480;SDS011;30184;42.018;23.670;2022-10-03T07:49:50;57.10;;;13.73;;
44480;SDS011;30184;42.018;23.670;2022-10-03T07:52:41;35.70;;;17.08;;
44480;SDS011;30184;42.018;23.670;2022-10-03T07:55:25;67.25;;;26.48;;
44480;SDS011;30184;42.018;23.670;2022-10-03T08:01:06;21.90;;;11.37;;
44480;SDS011;30184;42.018;23.670;2022-10-03T08:04:10;16.55;;;9.70;;
44480;SDS011;30184;42.018;23.670;2022-10-03T08:07:01;25.90;;;8.68;;
44480;SDS011;30184;42.018;23.670;2022-10-03T08:09:55;18.40;;;8.07;;
44480;SDS011;30184;42.018;23.670;2022-10-03T08:12:46;23.73;;;8.05;;
44480;SDS011;30184;42.018;23.670;2022-10-03T08:15:42;24.75;;;8.55;;
44480;SDS011;30184;42.018;23.670;2022-10-03T08:18:44;25.15;;;7.82;;
44480;SDS011;30184;42.018;23.670;2022-10-03T08:21:41;78.45;;;13.35;;
44480;SDS011;30184;42.018;23.670;2022-10-03T08:24:36;20.60;;;8.38;;
44480;SDS011;30184;42.018;23.670;2022-10-03T08:27:37;30.40;;;15.32;;
44480;SDS011;30184;42.018;23.670;2022-10-03T08:30:20;32.58;;;16.95;;
44480;SDS011;30184;42.018;23.670;2022-10-03T08:32:57;30.67;;;15.70;;
44480;SDS011;30184;42.018;23.670;2022-10-03T08:44:47;16.52;;;9.45;;
44480;SDS011;30184;42.018;23.670;2022-10-03T08:47:31;45.67;;;10.02;;
44480;SDS011;30184;42.018;23.670;2022-10-03T08:50:22;9.05;;;4.68;;
44480;SDS011;30184;42.018;23.670;2022-10-03T08:53:15;6.75;;;3.38;;
44480;SDS011;30184;42.018;23.670;2022-10-03T08:56:07;190.43;;;20.60;;
44480;SDS011;30184;42.018;23.670;2022-10-03T09:01:59;16.50;;;7.50;;
44480;SDS011;30184;42.018;23.670;2022-10-03T09:08:20;19.92;;;7.72;;
44480;SDS011;30184;42.018;23.670;2022-10-03T09:27:10;11.32;;;5.03;;
44480;SDS011;30184;42.018;23.670;2022-10-03T09:30:03;8.10;;;3.35;;
44480;SDS011;30184;42.018;23.670;2022-10-03T09:39:03;18.60;;;8.90;;
44480;SDS011;30184;42.018;23.670;2022-10-03T09:41:58;21.38;;;10.38;;
44480;SDS011;30184;42.018;23.670;2022-10-03T09:44:49;52.08;;;18.38;;
44480;SDS011;30184;42.018;23.670;2022-10-03T09:57:16;17.63;;;3.28;;
44480;SDS011;30184;42.018;23.670;2022-10-03T10:00:18;7.45;;;3.75;;
44480;SDS011;30184;42.018;23.670;2022-10-03T10:06:10;10.27;;;4.03;;
44480;SDS011;30184;42.018;23.670;2022-10-03T10:12:17;59.60;;;8.27;;
44480;SDS011;30184;42.018;23.670;2022-10-03T10:15:31;10.63;;;4.43;;
44480;SDS011;30184;42.018;23.670;2022-10-03T10:18:58;23.88;;;5.47;;
44480;SDS011;30184;42.018;23.670;2022-10-03T10:22:01;9.15;;;4.57;;
44480;SDS011;30184;42.018;23.670;2022-10-03T10:28:00;10.43;;;3.95;;
44480;SDS011;30184;42.018;23.670;2022-10-03T10:47:06;15.63;;;7.32;;
44480;SDS011;30184;42.018;23.670;2022-10-03T10:56:25;8.82;;;5.38;;
44480;SDS011;30184;42.018;23.670;2022-10-03T11:09:10;17.70;;;10.00;;
44480;SDS011;30184;42.018;23.670;2022-10-03T11:12:20;14.70;;;8.85;;
44480;SDS011;30184;42.018;23.670;2022-10-03T11:21:47;10.77;;;7.10;;
44480;SDS011;30184;42.018;23.670;2022-10-03T11:28:11;15.38;;;7.70;;
44480;SDS011;30184;42.018;23.670;2022-10-03T11:31:26;5.55;;;3.90;;
44480;SDS011;30184;42.018;23.670;2022-10-03T11:37:48;11.52;;;6.57;;
44480;SDS011;30184;42.018;23.670;2022-10-03T11:40:33;7.47;;;4.93;;
44480;SDS011;30184;42.018;23.670;2022-10-03T11:46:29;17.77;;;8.02;;
44480;SDS011;30184;42.018;23.670;2022-10-03T11:49:19;18.95;;;6.43;;
44480;SDS011;30184;42.018;23.670;2022-10-03T11:52:05;13.13;;;7.45;;
44480;SDS011;30184;42.018;23.670;2022-10-03T11:54:52;41.55;;;7.10;;
44480;SDS011;30184;42.018;23.670;2022-10-03T11:57:33;246.65;;;24.42;;
44480;SDS011;30184;42.018;23.670;2022-10-03T12:00:09;10.57;;;3.08;;
44480;SDS011;30184;42.018;23.670;2022-10-03T12:02:56;13.55;;;6.65;;
44480;SDS011;30184;42.018;23.670;2022-10-03T12:05:43;7.90;;;3.97;;
44480;SDS011;30184;42.018;23.670;2022-10-03T12:08:21;10.60;;;5.15;;
44480;SDS011;30184;42.018;23.670;2022-10-03T12:11:15;11.02;;;6.03;;
44480;SDS011;30184;42.018;23.670;2022-10-03T12:13:56;12.35;;;8.05;;
44480;SDS011;30184;42.018;23.670;2022-10-03T12:16:41;15.27;;;5.13;;
44480;SDS011;30184;42.018;23.670;2022-10-03T12:19:26;6.78;;;3.10;;
44480;SDS011;30184;42.018;23.670;2022-10-03T12:22:05;2.67;;;1.80;;
44480;SDS011;30184;42.018;23.670;2022-10-03T12:24:46;33.85;;;4.53;;
44480;SDS011;30184;42.018;23.670;2022-10-03T12:27:20;3.13;;;1.63;;
44480;SDS011;30184;42.018;23.670;2022-10-03T12:29:57;9.32;;;5.45;;
44480;SDS011;30184;42.018;23.670;2022-10-03T12:32:33;7.88;;;4.38;;
44480;SDS011;30184;42.018;23.670;2022-10-03T12:35:18;1.80;;;1.30;;
44480;SDS011;30184;42.018;23.670;2022-10-03T12:38:01;4.63;;;2.10;;
44480;SDS011;30184;42.018;23.670;2022-10-03T12:40:42;5.97;;;2.85;;
44480;SDS011;30184;42.018;23.670;2022-10-03T12:43:24;45.63;;;7.63;;
44480;SDS011;30184;42.018;23.670;2022-10-03T12:46:05;17.60;;;3.10;;
44480;SDS011;30184;42.018;23.670;2022-10-03T12:48:43;5.53;;;2.83;;
44480;SDS011;30184;42.018;23.670;2022-10-03T12:51:24;1.85;;;1.27;;
44480;SDS011;30184;42.018;23.670;2022-10-03T12:54:06;5.47;;;3.55;;
44480;SDS011;30184;42.018;23.670;2022-10-03T12:56:44;9.23;;;4.35;;
44480;SDS011;30184;42.018;23.670;2022-10-03T12:59:22;7.05;;;3.60;;
44480;SDS011;30184;42.018;23.670;2022-10-03T13:02:20;1.33;;;0.90;;
44480;SDS011;30184;42.018;23.670;2022-10-03T13:04:58;1.10;;;0.80;;
44480;SDS011;30184;42.018;23.670;2022-10-03T13:07:48;12.65;;;6.70;;
44480;SDS011;30184;42.018;23.670;2022-10-03T13:10:25;13.88;;;7.85;;
44480;SDS011;30184;42.018;23.670;2022-10-03T13:13:03;16.50;;;8.90;;
44480;SDS011;30184;42.018;23.670;2022-10-03T13:15:56;12.57;;;7.65;;
44480;SDS011;30184;42.018;23.670;2022-10-03T13:18:41;2.60;;;1.55;;
44480;SDS011;30184;42.018;23.670;2022-10-03T13:21:16;9.75;;;3.85;;
44480;SDS011;30184;42.018;23.670;2022-10-03T13:24:08;3.63;;;1.95;;
44480;SDS011;30184;42.018;23.670;2022-10-03T13:26:52;12.15;;;4.18;;
44480;SDS011;30184;42.018;23.670;2022-10-03T13:29:33;2.25;;;1.23;;
44480;SDS011;30184;42.018;23.670;2022-10-03T13:32:18;3.60;;;1.50;;
44480;SDS011;30184;42.018;23.670;2022-10-03T13:41:16;13.95;;;6.40;;
44480;SDS011;30184;42.018;23.670;2022-10-03T13:43:55;11.90;;;4.72;;
44480;SDS011;30184;42.018;23.670;2022-10-03T13:46:31;5.85;;;3.35;;
44480;SDS011;30184;42.018;23.670;2022-10-03T13:49:15;9.48;;;2.72;;
44480;SDS011;30184;42.018;23.670;2022-10-03T13:51:52;5.50;;;2.67;;
44480;SDS011;30184;42.018;23.670;2022-10-03T13:54:38;4.32;;;2.45;;
44480;SDS011;30184;42.018;23.670;2022-10-03T13:57:28;9.68;;;5.43;;
44480;SDS011;30184;42.018;23.670;2022-10-03T14:00:04;10.55;;;3.85;;
44480;SDS011;30184;42.018;23.670;2022-10-03T14:02:40;8.38;;;3.35;;
44480;SDS011;30184;42.018;23.670;2022-10-03T14:05:25;9.75;;;1.80;;
44480;SDS011;30184;42.018;23.670;2022-10-03T14:08:16;3.25;;;2.17;;
44480;SDS011;30184;42.018;23.670;2022-10-03T14:11:03;7.85;;;4.90;;
44480;SDS011;30184;42.018;23.670;2022-10-03T14:13:46;5.43;;;2.88;;
44480;SDS011;30184;42.018;23.670;2022-10-03T14:16:28;6.03;;;3.40;;
44480;SDS011;30184;42.018;23.670;2022-10-03T14:19:02;7.45;;;2.95;;
44480;SDS011;30184;42.018;23.670;2022-10-03T14:21:42;10.15;;;2.15;;
44480;SDS011;30184;42.018;23.670;2022-10-03T14:24:35;4.47;;;3.05;;
44480;SDS011;30184;42.018;23.670;2022-10-03T14:27:19;19.05;;;2.85;;
44480;SDS011;30184;42.018;23.670;2022-10-03T14:30:04;9.60;;;3.30;;
44480;SDS011;30184;42.018;23.670;2022-10-03T14:32:43;5.50;;;3.47;;
44480;SDS011;30184;42.018;23.670;2022-10-03T14:35:21;6.32;;;2.78;;
44480;SDS011;30184;42.018;23.670;2022-10-03T14:41:37;3.97;;;2.97;;
44480;SDS011;30184;42.018;23.670;2022-10-03T14:44:15;21.05;;;9.55;;
44480;SDS011;30184;42.018;23.670;2022-10-03T14:46:49;3.63;;;2.55;;
44480;SDS011;30184;42.018;23.670;2022-10-03T14:49:23;6.10;;;2.70;;
44480;SDS011;30184;42.018;23.670;2022-10-03T14:52:18;6.57;;;4.10;;
44480;SDS011;30184;42.018;23.670;2022-10-03T14:54:55;4.97;;;2.88;;
44480;SDS011;30184;42.018;23.670;2022-10-03T14:57:31;6.68;;;2.33;;
44480;SDS011;30184;42.018;23.670;2022-10-03T15:00:20;6.80;;;3.92;;
44480;SDS011;30184;42.018;23.670;2022-10-03T15:02:52;5.00;;;3.05;;
44480;SDS011;30184;42.018;23.670;2022-10-03T15:05:31;5.63;;;3.47;;
44480;SDS011;30184;42.018;23.670;2022-10-03T15:08:12;4.03;;;2.67;;
44480;SDS011;30184;42.018;23.670;2022-10-03T15:10:45;5.97;;;3.13;;
44480;SDS011;30184;42.018;23.670;2022-10-03T15:13:17;6.07;;;3.53;;
44480;SDS011;30184;42.018;23.670;2022-10-03T15:15:48;5.93;;;3.65;;
44480;SDS011;30184;42.018;23.670;2022-10-03T15:18:19;6.95;;;3.40;;
44480;SDS011;30184;42.018;23.670;2022-10-03T15:20:52;6.15;;;3.42;;
44480;SDS011;30184;42.018;23.670;2022-10-03T15:23:24;5.13;;;3.78;;
44480;SDS011;30184;42.018;23.670;2022-10-03T15:26:01;10.82;;;6.82;;
44480;SDS011;30184;42.018;23.670;2022-10-03T15:28:34;6.20;;;3.83;;
44480;SDS011;30184;42.018;23.670;2022-10-03T15:31:06;4.85;;;3.35;;
44480;SDS011;30184;42.018;23.670;2022-10-03T15:33:37;9.30;;;3.95;;
44480;SDS011;30184;42.018;23.670;2022-10-03T15:36:09;6.57;;;4.55;;
44480;SDS011;30184;42.018;23.670;2022-10-03T15:38:42;6.00;;;3.80;;
44480;SDS011;30184;42.018;23.670;2022-10-03T15:41:20;6.45;;;4.10;;
44480;SDS011;30184;42.018;23.670;2022-10-03T15:43:56;6.47;;;4.57;;
44480;SDS011;30184;42.018;23.670;2022-10-03T15:46:32;13.70;;;8.73;;
44480;SDS011;30184;42.018;23.670;2022-10-03T15:49:07;34.47;;;19.42;;
44480;SDS011;30184;42.018;23.670;2022-10-03T15:51:46;37.92;;;18.55;;
44480;SDS011;30184;42.018;23.670;2022-10-03T15:54:18;94.22;;;54.08;;
44480;SDS011;30184;42.018;23.670;2022-10-03T15:56:52;54.38;;;34.80;;
44480;SDS011;30184;42.018;23.670;2022-10-03T15:59:24;41.83;;;22.88;;
44480;SDS011;30184;42.018;23.670;2022-10-03T16:01:58;39.70;;;23.25;;
44480;SDS011;30184;42.018;23.670;2022-10-03T16:04:33;51.47;;;32.15;;
44480;SDS011;30184;42.018;23.670;2022-10-03T16:07:07;66.40;;;44.10;;
44480;SDS011;30184;42.018;23.670;2022-10-03T16:09:43;45.80;;;29.88;;
44480;SDS011;30184;42.018;23.670;2022-10-03T16:12:30;60.80;;;36.22;;
44480;SDS011;30184;42.018;23.670;2022-10-03T16:15:19;74.15;;;47.30;;
44480;SDS011;30184;42.018;23.670;2022-10-03T16:17:51;72.20;;;41.97;;
44480;SDS011;30184;42.018;23.670;2022-10-03T16:20:24;64.32;;;41.08;;
44480;SDS011;30184;42.018;23.670;2022-10-03T16:22:58;85.05;;;44.45;;
44480;SDS011;30184;42.018;23.670;2022-10-03T16:25:38;28.55;;;16.35;;
44480;SDS011;30184;42.018;23.670;2022-10-03T16:28:17;33.58;;;21.95;;
44480;SDS011;30184;42.018;23.670;2022-10-03T16:30:51;10.82;;;7.25;;
44480;SDS011;30184;42.018;23.670;2022-10-03T16:35:56;49.15;;;31.80;;
44480;SDS011;30184;42.018;23.670;2022-10-03T16:38:30;52.42;;;30.65;;
44480;SDS011;30184;42.018;23.670;2022-10-03T16:41:03;84.55;;;47.65;;
44480;SDS011;30184;42.018;23.670;2022-10-03T16:43:42;55.55;;;33.97;;
44480;SDS011;30184;42.018;23.670;2022-10-03T16:46:23;32.50;;;22.45;;
44480;SDS011;30184;42.018;23.670;2022-10-03T16:48:54;26.30;;;19.30;;
44480;SDS011;30184;42.018;23.670;2022-10-03T16:51:44;35.00;;;21.02;;
44480;SDS011;30184;42.018;23.670;2022-10-03T16:54:19;70.67;;;41.23;;
44480;SDS011;30184;42.018;23.670;2022-10-03T16:56:50;70.45;;;42.97;;
44480;SDS011;30184;42.018;23.670;2022-10-03T16:59:27;69.38;;;41.55;;
44480;SDS011;30184;42.018;23.670;2022-10-03T17:02:00;52.72;;;30.42;;
44480;SDS011;30184;42.018;23.670;2022-10-03T17:04:35;70.20;;;43.35;;
44480;SDS011;30184;42.018;23.670;2022-10-03T17:07:06;43.30;;;25.83;;
44480;SDS011;30184;42.018;23.670;2022-10-03T17:09:43;48.42;;;27.77;;
44480;SDS011;30184;42.018;23.670;2022-10-03T17:12:15;42.55;;;22.63;;
44480;SDS011;30184;42.018;23.670;2022-10-03T17:14:49;31.85;;;19.60;;
44480;SDS011;30184;42.018;23.670;2022-10-03T17:17:23;69.57;;;40.15;;
44480;SDS011;30184;42.018;23.670;2022-10-03T17:19:57;45.72;;;28.20;;
44480;SDS011;30184;42.018;23.670;2022-10-03T17:22:32;46.35;;;22.67;;
44480;SDS011;30184;42.018;23.670;2022-10-03T17:25:29;45.08;;;24.20;;
44480;SDS011;30184;42.018;23.670;2022-10-03T17:28:06;26.98;;;15.52;;
44480;SDS011;30184;42.018;23.670;2022-10-03T17:30:44;46.05;;;26.92;;
44480;SDS011;30184;42.018;23.670;2022-10-03T17:33:17;47.85;;;25.45;;
44480;SDS011;30184;42.018;23.670;2022-10-03T17:35:52;53.30;;;30.05;;
44480;SDS011;30184;42.018;23.670;2022-10-03T17:38:28;98.65;;;50.80;;
44480;SDS011;30184;42.018;23.670;2022-10-03T17:41:17;95.15;;;54.28;;
44480;SDS011;30184;42.018;23.670;2022-10-03T17:43:56;77.63;;;40.85;;
44480;SDS011;30184;42.018;23.670;2022-10-03T17:46:36;28.20;;;17.50;;
44480;SDS011;30184;42.018;23.670;2022-10-03T17:49:17;47.17;;;24.95;;
44480;SDS011;30184;42.018;23.670;2022-10-03T17:51:50;68.45;;;41.38;;
44480;SDS011;30184;42.018;23.670;2022-10-03T17:54:23;53.83;;;32.70;;
44480;SDS011;30184;42.018;23.670;2022-10-03T17:57:11;53.28;;;30.30;;
44480;SDS011;30184;42.018;23.670;2022-10-03T17:59:46;49.10;;;30.00;;
44480;SDS011;30184;42.018;23.670;2022-10-03T18:02:59;48.85;;;27.40;;
44480;SDS011;30184;42.018;23.670;2022-10-03T18:05:40;54.88;;;31.27;;
44480;SDS011;30184;42.018;23.670;2022-10-03T18:08:16;47.97;;;29.50;;
44480;SDS011;30184;42.018;23.670;2022-10-03T18:10:50;65.43;;;39.55;;
44480;SDS011;30184;42.018;23.670;2022-10-03T18:13:22;85.60;;;46.47;;
44480;SDS011;30184;42.018;23.670;2022-10-03T18:16:03;78.18;;;41.83;;
44480;SDS011;30184;42.018;23.670;2022-10-03T18:18:52;71.20;;;41.95;;
44480;SDS011;30184;42.018;23.670;2022-10-03T18:21:43;83.35;;;49.83;;
44480;SDS011;30184;42.018;23.670;2022-10-03T18:24:42;75.38;;;38.45;;
44480;SDS011;30184;42.018;23.670;2022-10-03T18:27:34;30.15;;;18.00;;
44480;SDS011;30184;42.018;23.670;2022-10-03T18:30:20;39.33;;;21.52;;
44480;SDS011;30184;42.018;23.670;2022-10-03T18:32:56;54.85;;;29.65;;
44480;SDS011;30184;42.018;23.670;2022-10-03T18:35:33;56.78;;;32.55;;
44480;SDS011;30184;42.018;23.670;2022-10-03T18:38:12;60.63;;;32.00;;
44480;SDS011;30184;42.018;23.670;2022-10-03T18:51:40;68.33;;;32.03;;
44480;SDS011;30184;42.018;23.670;2022-10-03T18:54:19;39.60;;;19.90;;
44480;SDS011;30184;42.018;23.670;2022-10-03T18:57:00;45.33;;;24.45;;
44480;SDS011;30184;42.018;23.670;2022-10-03T18:59:37;72.95;;;41.00;;
44480;SDS011;30184;42.018;23.670;2022-10-03T19:02:31;70.60;;;38.05;;
44480;SDS011;30184;42.018;23.670;2022-10-03T19:05:06;58.50;;;32.40;;
44480;SDS011;30184;42.018;23.670;2022-10-03T19:07:46;57.38;;;32.50;;
44480;SDS011;30184;42.018;23.670;2022-10-03T19:10:24;54.47;;;31.20;;
44480;SDS011;30184;42.018;23.670;2022-10-03T19:13:18;47.88;;;22.13;;
44480;SDS011;30184;42.018;23.670;2022-10-03T19:18:55;31.30;;;13.85;;
44480;SDS011;30184;42.018;23.670;2022-10-03T19:21:33;49.88;;;26.13;;
44480;SDS011;30184;42.018;23.670;2022-10-03T19:24:10;83.15;;;40.30;;
44480;SDS011;30184;42.018;23.670;2022-10-03T19:26:44;92.70;;;42.42;;
44480;SDS011;30184;42.018;23.670;2022-10-03T19:29:16;58.90;;;30.73;;
44480;SDS011;30184;42.018;23.670;2022-10-03T19:31:51;31.90;;;15.00;;
44480;SDS011;30184;42.018;23.670;2022-10-03T19:34:31;28.52;;;16.08;;
44480;SDS011;30184;42.018;23.670;2022-10-03T19:37:05;27.50;;;14.52;;
44480;SDS011;30184;42.018;23.670;2022-10-03T19:39:40;25.58;;;16.63;;
44480;SDS011;30184;42.018;23.670;2022-10-03T19:42:16;31.13;;;17.58;;
44480;SDS011;30184;42.018;23.670;2022-10-03T19:44:54;28.75;;;17.67;;
44480;SDS011;30184;42.018;23.670;2022-10-03T19:47:26;29.00;;;15.27;;
44480;SDS011;30184;42.018;23.670;2022-10-03T19:50:06;43.83;;;22.02;;
44480;SDS011;30184;42.018;23.670;2022-10-03T19:52:45;38.38;;;20.30;;
44480;SDS011;30184;42.018;23.670;2022-10-03T19:55:17;33.78;;;18.92;;
44480;SDS011;30184;42.018;23.670;2022-10-03T19:57:51;33.28;;;16.63;;
44480;SDS011;30184;42.018;23.670;2022-10-03T20:00:24;25.33;;;16.02;;
44480;SDS011;30184;42.018;23.670;2022-10-03T20:03:03;28.67;;;15.88;;
44480;SDS011;30184;42.018;23.670;2022-10-03T20:05:59;31.92;;;17.42;;
44480;SDS011;30184;42.018;23.670;2022-10-03T20:08:31;36.88;;;19.23;;
44480;SDS011;30184;42.018;23.670;2022-10-03T20:14:12;85.75;;;37.80;;
44480;SDS011;30184;42.018;23.670;2022-10-03T20:16:43;41.65;;;24.17;;
44480;SDS011;30184;42.018;23.670;2022-10-03T20:19:18;30.85;;;17.85;;
44480;SDS011;30184;42.018;23.670;2022-10-03T20:21:50;27.90;;;14.25;;
44480;SDS011;30184;42.018;23.670;2022-10-03T20:24:22;29.50;;;12.98;;
44480;SDS011;30184;42.018;23.670;2022-10-03T20:27:03;31.13;;;11.88;;
44480;SDS011;30184;42.018;23.670;2022-10-03T20:29:44;59.25;;;24.15;;
44480;SDS011;30184;42.018;23.670;2022-10-03T20:32:22;39.90;;;21.02;;
44480;SDS011;30184;42.018;23.670;2022-10-03T20:34:51;31.98;;;17.67;;
44480;SDS011;30184;42.018;23.670;2022-10-03T20:37:27;28.30;;;15.93;;
44480;SDS011;30184;42.018;23.670;2022-10-03T20:40:11;22.52;;;12.60;;
44480;SDS011;30184;42.018;23.670;2022-10-03T20:42:50;113.25;;;46.30;;
44480;SDS011;30184;42.018;23.670;2022-10-03T20:45:27;55.42;;;27.63;;
44480;SDS011;30184;42.018;23.670;2022-10-03T20:47:59;34.45;;;15.55;;
44480;SDS011;30184;42.018;23.670;2022-10-03T20:50:32;29.08;;;12.88;;
44480;SDS011;30184;42.018;23.670;2022-10-03T20:53:16;31.70;;;14.50;;
44480;SDS011;30184;42.018;23.670;2022-10-03T20:55:52;24.73;;;13.48;;
44480;SDS011;30184;42.018;23.670;2022-10-03T20:58:28;23.20;;;12.52;;
44480;SDS011;30184;42.018;23.670;2022-10-03T21:03:36;22.80;;;12.25;;
44480;SDS011;30184;42.018;23.670;2022-10-03T21:06:14;20.25;;;11.60;;
44480;SDS011;30184;42.018;23.670;2022-10-03T21:08:46;60.58;;;28.75;;
44480;SDS011;30184;42.018;23.670;2022-10-03T21:11:18;69.90;;;29.77;;
44480;SDS011;30184;42.018;23.670;2022-10-03T21:13:53;31.00;;;15.10;;
44480;SDS011;30184;42.018;23.670;2022-10-03T21:16:24;75.07;;;33.53;;
44480;SDS011;30184;42.018;23.670;2022-10-03T21:18:56;49.72;;;25.55;;
44480;SDS011;30184;42.018;23.670;2022-10-03T21:21:31;56.53;;;23.67;;
44480;SDS011;30184;42.018;23.670;2022-10-03T21:24:06;29.17;;;14.52;;
44480;SDS011;30184;42.018;23.670;2022-10-03T21:26:42;21.10;;;11.73;;
44480;SDS011;30184;42.018;23.670;2022-10-03T21:29:20;19.38;;;9.65;;
44480;SDS011;30184;42.018;23.670;2022-10-03T21:32:01;18.45;;;8.82;;
44480;SDS011;30184;42.018;23.670;2022-10-03T21:34:42;16.90;;;9.80;;
44480;SDS011;30184;42.018;23.670;2022-10-03T21:37:22;15.80;;;8.70;;
44480;SDS011;30184;42.018;23.670;2022-10-03T21:40:01;16.95;;;9.70;;
44480;SDS011;30184;42.018;23.670;2022-10-03T21:42:42;39.60;;;17.67;;
44480;SDS011;30184;42.018;23.670;2022-10-03T21:45:23;33.35;;;17.00;;
44480;SDS011;30184;42.018;23.670;2022-10-03T21:48:01;18.35;;;10.85;;
44480;SDS011;30184;42.018;23.670;2022-10-03T21:50:43;17.00;;;8.88;;
44480;SDS011;30184;42.018;23.670;2022-10-03T21:53:22;17.23;;;8.32;;
44480;SDS011;30184;42.018;23.670;2022-10-03T21:56:06;16.83;;;8.93;;
44480;SDS011;30184;42.018;23.670;2022-10-03T21:58:53;17.00;;;10.93;;
44480;SDS011;30184;42.018;23.670;2022-10-03T22:01:39;20.27;;;9.85;;
44480;SDS011;30184;42.018;23.670;2022-10-03T22:04:15;19.73;;;11.15;;
44480;SDS011;30184;42.018;23.670;2022-10-03T22:06:54;18.65;;;10.07;;
44480;SDS011;30184;42.018;23.670;2022-10-03T22:09:30;16.52;;;9.73;;
44480;SDS011;30184;42.018;23.670;2022-10-03T22:12:00;25.15;;;10.98;;
44480;SDS011;30184;42.018;23.670;2022-10-03T22:14:36;26.33;;;12.17;;
44480;SDS011;30184;42.018;23.670;2022-10-03T22:17:15;18.23;;;10.77;;
44480;SDS011;30184;42.018;23.670;2022-10-03T22:19:49;16.75;;;9.38;;
44480;SDS011;30184;42.018;23.670;2022-10-03T22:22:34;21.10;;;8.65;;
44480;SDS011;30184;42.018;23.670;2022-10-03T22:25:16;17.02;;;9.73;;
44480;SDS011;30184;42.018;23.670;2022-10-03T22:27:59;16.27;;;8.15;;
44480;SDS011;30184;42.018;23.670;2022-10-03T22:30:36;18.75;;;9.75;;
44480;SDS011;30184;42.018;23.670;2022-10-03T22:33:15;23.13;;;11.10;;
44480;SDS011;30184;42.018;23.670;2022-10-03T22:35:52;18.83;;;8.88;;
44480;SDS011;30184;42.018;23.670;2022-10-03T22:38:24;15.55;;;9.25;;
44480;SDS011;30184;42.018;23.670;2022-10-03T22:40:56;17.67;;;9.90;;
44480;SDS011;30184;42.018;23.670;2022-10-03T22:43:29;20.00;;;11.52;;
44480;SDS011;30184;42.018;23.670;2022-10-03T22:46:01;19.02;;;10.13;;
44480;SDS011;30184;42.018;23.670;2022-10-03T22:48:35;17.92;;;9.93;;
44480;SDS011;30184;42.018;23.670;2022-10-03T22:51:10;14.85;;;9.07;;
44480;SDS011;30184;42.018;23.670;2022-10-03T22:53:43;18.63;;;10.05;;
44480;SDS011;30184;42.018;23.670;2022-10-03T22:56:32;18.65;;;9.52;;